KSVC/SVC METAR and TAF weather

Enter ICAO airport designator
Station Type Date Time Source
KSVC METAR 2022/06/28 08:55 UTC NOAA

KSVC 280855Z AUTO 00000KT 10SM DZ BKN060 OVC095 18/17 A3038 RMK AO2 P0001 60009 T01820171


Station Type Date Time Source
KSVC Decoded METAR 2022/06/28 08:55 UTC NOAA

Silver City / Grant, NM, United States (KSVC) 32-38N 108-09W
Jun 28, 2022 - 04:55 AM EDT / 2022.06.28 0855 UTC
Wind: Calm:0
Visibility: 10 mile(s):0
Sky conditions: overcast
Weather: drizzle
Precipitation last hour: 0.01 inches
Temperature: 64.8 F (18.2 C)
Dew Point: 62.8 F (17.1 C)
Relative Humidity: 93%
Pressure (altimeter): 30.38 in. Hg (1028 hPa)
ob: KSVC 280855Z AUTO 00000KT 10SM DZ BKN060 OVC095 18/17 A3038 RMK AO2 P0001 60009 T01820171
cycle: 9

Station Type Date Time Source
KSVC TAF UTC NOAA

Error!

Example: see airport list